createdAt,value
2023-08-08T00:09:16.595Z,18.12
2023-08-08T00:29:16.576Z,18.12
2023-08-08T00:49:16.549Z,18.06
2023-08-08T01:09:16.664Z,18.00
2023-08-08T01:29:16.502Z,18.18
2023-08-08T01:49:16.838Z,18.06
2023-08-08T02:09:16.809Z,18.06
2023-08-08T02:29:16.653Z,18.06
2023-08-08T03:09:16.381Z,18.12
2023-08-08T03:29:16.430Z,18.00
2023-08-08T03:49:16.697Z,17.81
2023-08-08T04:09:16.451Z,17.93
2023-08-08T04:29:16.475Z,17.93
2023-08-08T04:49:16.589Z,18.06
2023-08-08T05:09:16.440Z,18.06
2023-08-08T05:29:16.543Z,18.06
2023-08-08T05:49:16.432Z,17.93
2023-08-08T06:09:16.548Z,18.00
2023-08-08T06:29:16.496Z,17.87
2023-08-08T06:49:16.479Z,17.87
2023-08-08T07:09:16.129Z,17.87
2023-08-08T07:29:16.180Z,17.75
2023-08-08T07:49:16.326Z,17.75
2023-08-08T08:09:16.176Z,17.93
2023-08-08T08:29:16.049Z,17.93
2023-08-08T08:49:16.315Z,18.00
2023-08-08T09:09:16.393Z,18.06
2023-08-08T09:29:16.341Z,18.25
2023-08-08T09:49:16.208Z,18.37
2023-08-08T10:09:15.958Z,18.37
2023-08-08T10:29:16.234Z,18.68
2023-08-08T10:49:16.307Z,18.56
2023-08-08T11:09:16.099Z,18.56
2023-08-08T11:29:16.106Z,18.62
2023-08-08T11:49:16.165Z,18.56
2023-08-08T12:09:16.061Z,18.43
2023-08-08T12:29:15.861Z,18.62
2023-08-08T12:49:15.920Z,18.81
2023-08-08T13:09:15.964Z,18.68
2023-08-08T13:29:15.645Z,18.68
2023-08-08T13:49:16.018Z,18.81
2023-08-08T14:09:15.772Z,18.68
2023-08-08T14:29:15.972Z,18.56
2023-08-08T14:49:15.855Z,18.75
2023-08-08T15:09:16.023Z,18.68
2023-08-08T15:29:15.730Z,18.87
2023-08-08T15:49:15.630Z,18.81
2023-08-08T16:09:15.584Z,18.75
2023-08-08T16:29:15.863Z,18.81
2023-08-08T16:49:15.867Z,18.75
2023-08-08T17:09:15.509Z,18.56
2023-08-08T17:29:15.635Z,18.81
2023-08-08T17:49:15.629Z,18.81
2023-08-08T18:09:15.405Z,18.56
2023-08-08T18:29:15.654Z,18.68
2023-08-08T18:49:15.409Z,18.68
2023-08-08T19:09:15.216Z,18.68
2023-08-08T19:29:15.204Z,18.62
2023-08-08T19:49:15.304Z,18.68
2023-08-08T20:09:15.289Z,18.68
2023-08-08T20:29:15.419Z,18.68
2023-08-08T20:49:15.259Z,18.81
2023-08-08T21:09:15.247Z,18.50
2023-08-08T21:29:15.096Z,18.81
2023-08-08T21:49:15.242Z,18.56
2023-08-08T22:09:15.082Z,18.75
2023-08-08T22:29:15.034Z,18.75
2023-08-08T22:49:15.168Z,18.62
2023-08-08T23:09:15.130Z,18.75
2023-08-08T23:29:15.050Z,18.68
2023-08-08T23:49:14.939Z,18.56
